La Suprema — IBIL — position and weather

sailwx.info

Track history (hours):
 
Tides and Currents Weather Stations Pressure Air Temp Water Temp Dewpoint Dewpoint Depression Visibility Wind Speed Wind Dir Waves Ship Positions

La Suprema

Last reported at 2015-Jul-02 09:33 UTC. Time now 2015-Jul-02 09:51 UTC.
Position N 42°48' E 009°45'.

Length 211 m; draft 7.2 m.

Type: Passenger vessel. MMSI: 247083700.

Date/timePositionNaut miles runAvg speedWind from/ knotsBaromVisibWave heightAir tempDewpointWater temp
2015-Jul-02 09:33N 42°48' E 009°45'2423.6
2015-Jul-02 08:33N 42°25' E 009°56'2222.7
2015-Jul-02 07:33N 42°05' E 010°10'2423.9
2015-Jul-02 06:32N 41°45' E 010°28'2423.6
2015-Jul-02 05:32N 41°25' E 010°46'2723.7
2015-Jul-02 04:25N 41°03' E 011°05'7423.7
2015-Jul-02 01:16N 39°60' E 011°57'2623.3
2015-Jul-02 00:09N 39°38' E 012°15'1423.1
2015-Jul-01 23:33N 39°26' E 012°24'2323.2
2015-Jul-01 22:34N 39°06' E 012°40'2323.4
2015-Jul-01 21:34N 38°47' E 012°56'3023.4
2015-Jul-01 20:16N 38°22' E 013°18'1520.9
2015-Jul-01 19:33N 38°07' E 013°24'1 1.4
2015-Jul-01 18:32N 38°08' E 013°22'0 0.0
2015-Jul-01 17:22N 38°08' E 013°22'0 0.0
2015-Jul-01 15:21N 38°08' E 013°22'0 0.2
2015-Jul-01 14:34N 38°08' E 013°22'1616.3
2015-Jul-01 13:34N 38°24' E 013°17'2423.6
2015-Jul-01 12:34N 38°43' E 012°59'5823.7
2015-Jul-01 10:07N 39°31' E 012°18'1523.8
2015-Jul-01 09:28N 39°44' E 012°07'7423.6
2015-Jul-01 06:19N 40°47' E 011°17'1823.4
2015-Jul-01 05:33N 41°03' E 011°05'2923.4
2015-Jul-01 04:18N 41°27' E 010°44'2423.4
2015-Jul-01 03:18N 41°47' E 010°26'1723.2
2015-Jul-01 02:33N 42°01' E 010°14'2923.5
2015-Jul-01 01:19N 42°26' E 009°53'1823.7
2015-Jul-01 00:34N 42°43' E 009°46'2423.6
2015-Jun-30 23:34N 43°05' E 009°33'2323.2
2015-Jun-30 22:34N 43°27' E 009°25'2423.5
2015-Jun-30 21:34N 43°49' E 009°14'2423.9
2015-Jun-30 20:34N 44°12' E 009°03'1413.6
2015-Jun-30 19:33N 44°25' E 008°55'0 0.0
2015-Jun-30 18:33N 44°25' E 008°55'0 0.0
2015-Jun-30 17:33N 44°25' E 008°55'0 0.0
2015-Jun-30 16:33N 44°25' E 008°55'0 0.0
2015-Jun-30 15:33N 44°25' E 008°55'0 0.0
2015-Jun-30 14:33N 44°25' E 008°55'3 3.3
2015-Jun-30 13:33N 44°22' E 008°58'2222.4
2015-Jun-30 12:34N 44°01' E 009°09'2423.8
2015-Jun-30 11:33N 43°39' E 009°21'2423.8
2015-Jun-30 10:34N 43°17' E 009°31'2423.8
2015-Jun-30 09:33N 42°54' E 009°42'4723.5
2015-Jun-30 07:33N 42°11' E 010°08'3623.8
2015-Jun-30 06:03N 41°41' E 010°33'3623.7
2015-Jun-30 04:33N 41°11' E 010°59'11823.6
2015-Jun-29 23:33N 39°31' E 012°21'2323.4
2015-Jun-29 22:34N 39°11' E 012°38'2423.6
2015-Jun-29 21:33N 38°51' E 012°54'4823.8
2015-Jun-29 19:34N 38°11' E 013°25'4 2.6
2015-Jun-29 18:07N 38°08' E 013°22'0 0.0
2015-Jun-29 17:28N 38°08' E 013°22'0 0.0
2015-Jun-29 16:27N 38°08' E 013°22'0 0.0
2015-Jun-29 15:33N 38°08' E 013°22'0 0.0
2015-Jun-29 14:27N 38°08' E 013°22'2 2.7
2015-Jun-29 13:33N 38°09' E 013°24'2322.6
2015-Jun-29 12:33N 38°29' E 013°11'16623.7
2015-Jun-29 05:33N 40°49' E 011°16'2423.4
2015-Jun-29 04:32N 41°09' E 010°59'5623.4
2015-Jun-29 02:09N 41°56' E 010°17'1723.3
2015-Jun-29 01:25N 42°09' E 010°02'4323.4
2015-Jun-28 23:33N 42°49' E 009°40'2423.8
2015-Jun-28 22:34N 43°12' E 009°33'2323.4
2015-Jun-28 21:34N 43°35' E 009°24'2423.6
2015-Jun-28 20:34N 43°56' E 009°10'2423.7
2015-Jun-28 19:34N 44°18' E 008°59'7 6.7
2015-Jun-28 18:33N 44°25' E 008°55'0 0.0
2015-Jun-28 17:33N 44°25' E 008°55'0 0.0
2015-Jun-28 16:33N 44°25' E 008°55'0 0.0
2015-Jun-28 15:33N 44°25' E 008°55'0 0.0
2015-Jun-28 14:33N 44°25' E 008°55'5 4.6
2015-Jun-28 13:34N 44°21' E 008°59'2222.5
2015-Jun-28 12:34N 43°60' E 009°10'2423.6
2015-Jun-28 11:34N 43°38' E 009°22'2423.9
2015-Jun-28 10:34N 43°15' E 009°32'3123.7
2015-Jun-28 09:16N 42°46' E 009°46'21523.6
2015-Jun-28 00:10N 39°42' E 012°12'3823.2
2015-Jun-27 22:31N 39°09' E 012°38'4623.4
2015-Jun-27 20:33N 38°30' E 013°10'2423.7
2015-Jun-27 19:34N 38°10' E 013°26'4 3.9
2015-Jun-27 18:33N 38°08' E 013°22'0 0.0
2015-Jun-27 17:33N 38°08' E 013°22'0 0.0
2015-Jun-27 16:33N 38°08' E 013°22'0 0.0
2015-Jun-27 15:33N 38°08' E 013°22'0 0.0
2015-Jun-27 14:33N 38°08' E 013°22'5 4.9
2015-Jun-27 13:34N 38°13' E 013°24'2623.8
2015-Jun-27 12:29N 38°34' E 013°06'18923.9
2015-Jun-27 04:33N 41°14' E 010°55'5123.9
2015-Jun-27 02:25N 41°57' E 010°17'2123.9
2015-Jun-27 01:32N 42°14' E 010°01'2323.4
2015-Jun-27 00:34N 42°34' E 009°47'2423.8
2015-Jun-26 23:34N 42°57' E 009°37'2423.6
2015-Jun-26 22:33N 43°20' E 009°29'2323.3
2015-Jun-26 21:34N 43°42' E 009°18'2423.8
2015-Jun-26 20:34N 44°04' E 009°06'2121.1
2015-Jun-26 19:33N 44°24' E 008°56'1 0.8
2015-Jun-26 18:23N 44°25' E 008°55'0 0.0
2015-Jun-26 17:28N 44°25' E 008°55'0 0.0
2015-Jun-26 16:25N 44°25' E 008°55'0 0.0
2015-Jun-26 15:28N 44°25' E 008°55'0 0.0
2015-Jun-26 14:30N 44°25' E 008°55'5 5.4
2015-Jun-26 13:33N 44°20' E 008°59'2121.0
2015-Jun-26 12:34N 44°01' E 009°09'2322.6
2015-Jun-26 11:33N 43°39' E 009°19'2322.9
2015-Jun-26 10:33N 43°18' E 009°31'32424.1
2015-Jun-25 21:09N 38°37' E 013°04'1525.3
2015-Jun-25 20:34N 38°25' E 013°14'1918.5
2015-Jun-25 19:33N 38°08' E 013°22'0 0.5
2015-Jun-25 18:32N 38°08' E 013°22'0 0.0
2015-Jun-25 17:31N 38°08' E 013°22'0 0.0
2015-Jun-25 16:31N 38°08' E 013°22'0 0.0
2015-Jun-25 15:33N 38°08' E 013°22'0 0.0
2015-Jun-25 14:33N 38°08' E 013°22'6 5.7
2015-Jun-25 13:34N 38°13' E 013°23'2322.9
2015-Jun-25 12:34N 38°32' E 013°07'30923.7
2015-Jun-24 23:33N 42°57' E 009°38'2524.6
2015-Jun-24 22:34N 43°21' E 009°27'2525.3
2015-Jun-24 21:34N 43°44' E 009°15'2525.5
2015-Jun-24 20:34N 44°08' E 009°03'1717.0
2015-Jun-24 19:32N 44°25' E 008°55'0 0.0
2015-Jun-24 18:26N 44°25' E 008°55'0 0.0
2015-Jun-24 17:32N 44°25' E 008°55'0 0.0
2015-Jun-24 16:31N 44°25' E 008°55'0 0.0
2015-Jun-24 15:25N 44°25' E 008°55'0 0.0
2015-Jun-24 14:30N 44°25' E 008°55'5 5.1
2015-Jun-24 13:34N 44°21' E 008°59'2322.6
2015-Jun-24 12:34N 43°59' E 009°10'2323.1
2015-Jun-24 11:34N 43°38' E 009°21'2323.3
2015-Jun-24 10:34N 43°16' E 009°31'29324.4
2015-Jun-23 22:33N 39°01' E 012°46'2524.9
2015-Jun-23 21:34N 38°40' E 013°02'2525.0
2015-Jun-23 20:34N 38°19' E 013°19'1111.2
2015-Jun-23 19:33N 38°08' E 013°22'0 0.0
2015-Jun-23 19:03N 38°08' E 013°22'42718.1
2015-Jun-22 19:30N 44°25' E 008°55'0 0.0
2015-Jun-22 18:30N 44°25' E 008°55'0 0.0
2015-Jun-22 17:29N 44°25' E 008°55'0 0.0
2015-Jun-22 16:32N 44°25' E 008°55'0 0.0
2015-Jun-22 15:31N 44°25' E 008°55'0 0.0
2015-Jun-22 14:34N 44°25' E 008°55'1110.5
2015-Jun-22 13:34N 44°15' E 009°02'2322.9
2015-Jun-22 12:34N 43°53' E 009°11'2322.9
2015-Jun-22 11:34N 43°32' E 009°24'2323.0
2015-Jun-22 10:33N 43°10' E 009°33'  
Track history (hours):
 
Tides and Currents Weather Stations Pressure Air Temp Water Temp Dewpoint Dewpoint Depression Visibility Wind Speed Wind Dir Waves Ship Positions

La Suprema

Last reported at 2015-Jul-02 09:33 UTC. Time now 2015-Jul-02 09:51 UTC.
Position N 42°48' E 009°45'.

Length 211 m; draft 7.2 m.

Type: Passenger vessel. MMSI: 247083700.

Date/timePositionNaut miles runAvg speedWind from/ knotsBaromVisibWave heightAir tempDewpointWater temp
2015-Jul-02 09:33N 42°48' E 009°45'2423.6
2015-Jul-02 08:33N 42°25' E 009°56'2222.7
2015-Jul-02 07:33N 42°05' E 010°10'2423.9
2015-Jul-02 06:32N 41°45' E 010°28'2423.6
2015-Jul-02 05:32N 41°25' E 010°46'2723.7
2015-Jul-02 04:25N 41°03' E 011°05'7423.7
2015-Jul-02 01:16N 39°60' E 011°57'2623.3
2015-Jul-02 00:09N 39°38' E 012°15'1423.1
2015-Jul-01 23:33N 39°26' E 012°24'2323.2
2015-Jul-01 22:34N 39°06' E 012°40'2323.4
2015-Jul-01 21:34N 38°47' E 012°56'3023.4
2015-Jul-01 20:16N 38°22' E 013°18'1520.9
2015-Jul-01 19:33N 38°07' E 013°24'1 1.4
2015-Jul-01 18:32N 38°08' E 013°22'0 0.0
2015-Jul-01 17:22N 38°08' E 013°22'0 0.0
2015-Jul-01 15:21N 38°08' E 013°22'0 0.2
2015-Jul-01 14:34N 38°08' E 013°22'1616.3
2015-Jul-01 13:34N 38°24' E 013°17'2423.6
2015-Jul-01 12:34N 38°43' E 012°59'5823.7
2015-Jul-01 10:07N 39°31' E 012°18'1523.8
2015-Jul-01 09:28N 39°44' E 012°07'7423.6
2015-Jul-01 06:19N 40°47' E 011°17'1823.4
2015-Jul-01 05:33N 41°03' E 011°05'2923.4
2015-Jul-01 04:18N 41°27' E 010°44'2423.4
2015-Jul-01 03:18N 41°47' E 010°26'1723.2
2015-Jul-01 02:33N 42°01' E 010°14'2923.5
2015-Jul-01 01:19N 42°26' E 009°53'1823.7
2015-Jul-01 00:34N 42°43' E 009°46'2423.6
2015-Jun-30 23:34N 43°05' E 009°33'2323.2
2015-Jun-30 22:34N 43°27' E 009°25'2423.5
2015-Jun-30 21:34N 43°49' E 009°14'2423.9
2015-Jun-30 20:34N 44°12' E 009°03'1413.6
2015-Jun-30 19:33N 44°25' E 008°55'0 0.0
2015-Jun-30 18:33N 44°25' E 008°55'0 0.0
2015-Jun-30 17:33N 44°25' E 008°55'0 0.0
2015-Jun-30 16:33N 44°25' E 008°55'0 0.0
2015-Jun-30 15:33N 44°25' E 008°55'0 0.0
2015-Jun-30 14:33N 44°25' E 008°55'3 3.3
2015-Jun-30 13:33N 44°22' E 008°58'2222.4
2015-Jun-30 12:34N 44°01' E 009°09'2423.8
2015-Jun-30 11:33N 43°39' E 009°21'2423.8
2015-Jun-30 10:34N 43°17' E 009°31'2423.8
2015-Jun-30 09:33N 42°54' E 009°42'4723.5
2015-Jun-30 07:33N 42°11' E 010°08'3623.8
2015-Jun-30 06:03N 41°41' E 010°33'3623.7
2015-Jun-30 04:33N 41°11' E 010°59'11823.6
2015-Jun-29 23:33N 39°31' E 012°21'2323.4
2015-Jun-29 22:34N 39°11' E 012°38'2423.6
2015-Jun-29 21:33N 38°51' E 012°54'4823.8
2015-Jun-29 19:34N 38°11' E 013°25'4 2.6
2015-Jun-29 18:07N 38°08' E 013°22'0 0.0
2015-Jun-29 17:28N 38°08' E 013°22'0 0.0
2015-Jun-29 16:27N 38°08' E 013°22'0 0.0
2015-Jun-29 15:33N 38°08' E 013°22'0 0.0
2015-Jun-29 14:27N 38°08' E 013°22'2 2.7
2015-Jun-29 13:33N 38°09' E 013°24'2322.6
2015-Jun-29 12:33N 38°29' E 013°11'16623.7
2015-Jun-29 05:33N 40°49' E 011°16'2423.4
2015-Jun-29 04:32N 41°09' E 010°59'5623.4
2015-Jun-29 02:09N 41°56' E 010°17'1723.3
2015-Jun-29 01:25N 42°09' E 010°02'4323.4
2015-Jun-28 23:33N 42°49' E 009°40'2423.8
2015-Jun-28 22:34N 43°12' E 009°33'2323.4
2015-Jun-28 21:34N 43°35' E 009°24'2423.6
2015-Jun-28 20:34N 43°56' E 009°10'2423.7
2015-Jun-28 19:34N 44°18' E 008°59'7 6.7
2015-Jun-28 18:33N 44°25' E 008°55'0 0.0
2015-Jun-28 17:33N 44°25' E 008°55'0 0.0
2015-Jun-28 16:33N 44°25' E 008°55'0 0.0
2015-Jun-28 15:33N 44°25' E 008°55'0 0.0
2015-Jun-28 14:33N 44°25' E 008°55'5 4.6
2015-Jun-28 13:34N 44°21' E 008°59'2222.5
2015-Jun-28 12:34N 43°60' E 009°10'2423.6
2015-Jun-28 11:34N 43°38' E 009°22'2423.9
2015-Jun-28 10:34N 43°15' E 009°32'3123.7
2015-Jun-28 09:16N 42°46' E 009°46'21523.6
2015-Jun-28 00:10N 39°42' E 012°12'3823.2
2015-Jun-27 22:31N 39°09' E 012°38'4623.4
2015-Jun-27 20:33N 38°30' E 013°10'2423.7
2015-Jun-27 19:34N 38°10' E 013°26'4 3.9
2015-Jun-27 18:33N 38°08' E 013°22'0 0.0
2015-Jun-27 17:33N 38°08' E 013°22'0 0.0
2015-Jun-27 16:33N 38°08' E 013°22'0 0.0
2015-Jun-27 15:33N 38°08' E 013°22'0 0.0
2015-Jun-27 14:33N 38°08' E 013°22'5 4.9
2015-Jun-27 13:34N 38°13' E 013°24'2623.8
2015-Jun-27 12:29N 38°34' E 013°06'18923.9
2015-Jun-27 04:33N 41°14' E 010°55'5123.9
2015-Jun-27 02:25N 41°57' E 010°17'2123.9
2015-Jun-27 01:32N 42°14' E 010°01'2323.4
2015-Jun-27 00:34N 42°34' E 009°47'2423.8
2015-Jun-26 23:34N 42°57' E 009°37'2423.6
2015-Jun-26 22:33N 43°20' E 009°29'2323.3
2015-Jun-26 21:34N 43°42' E 009°18'2423.8
2015-Jun-26 20:34N 44°04' E 009°06'2121.1
2015-Jun-26 19:33N 44°24' E 008°56'1 0.8
2015-Jun-26 18:23N 44°25' E 008°55'0 0.0
2015-Jun-26 17:28N 44°25' E 008°55'0 0.0
2015-Jun-26 16:25N 44°25' E 008°55'0 0.0
2015-Jun-26 15:28N 44°25' E 008°55'0 0.0
2015-Jun-26 14:30N 44°25' E 008°55'5 5.4
2015-Jun-26 13:33N 44°20' E 008°59'2121.0
2015-Jun-26 12:34N 44°01' E 009°09'2322.6
2015-Jun-26 11:33N 43°39' E 009°19'2322.9
2015-Jun-26 10:33N 43°18' E 009°31'32424.1
2015-Jun-25 21:09N 38°37' E 013°04'1525.3
2015-Jun-25 20:34N 38°25' E 013°14'1918.5
2015-Jun-25 19:33N 38°08' E 013°22'0 0.5
2015-Jun-25 18:32N 38°08' E 013°22'0 0.0
2015-Jun-25 17:31N 38°08' E 013°22'0 0.0
2015-Jun-25 16:31N 38°08' E 013°22'0 0.0
2015-Jun-25 15:33N 38°08' E 013°22'0 0.0
2015-Jun-25 14:33N 38°08' E 013°22'6 5.7
2015-Jun-25 13:34N 38°13' E 013°23'2322.9
2015-Jun-25 12:34N 38°32' E 013°07'30923.7
2015-Jun-24 23:33N 42°57' E 009°38'2524.6
2015-Jun-24 22:34N 43°21' E 009°27'2525.3
2015-Jun-24 21:34N 43°44' E 009°15'2525.5
2015-Jun-24 20:34N 44°08' E 009°03'1717.0
2015-Jun-24 19:32N 44°25' E 008°55'0 0.0
2015-Jun-24 18:26N 44°25' E 008°55'0 0.0
2015-Jun-24 17:32N 44°25' E 008°55'0 0.0
2015-Jun-24 16:31N 44°25' E 008°55'0 0.0
2015-Jun-24 15:25N 44°25' E 008°55'0 0.0
2015-Jun-24 14:30N 44°25' E 008°55'5 5.1
2015-Jun-24 13:34N 44°21' E 008°59'2322.6
2015-Jun-24 12:34N 43°59' E 009°10'2323.1
2015-Jun-24 11:34N 43°38' E 009°21'2323.3
2015-Jun-24 10:34N 43°16' E 009°31'29324.4
2015-Jun-23 22:33N 39°01' E 012°46'2524.9
2015-Jun-23 21:34N 38°40' E 013°02'2525.0
2015-Jun-23 20:34N 38°19' E 013°19'1111.2
2015-Jun-23 19:33N 38°08' E 013°22'0 0.0
2015-Jun-23 19:03N 38°08' E 013°22'42718.1
2015-Jun-22 19:30N 44°25' E 008°55'0 0.0
2015-Jun-22 18:30N 44°25' E 008°55'0 0.0
2015-Jun-22 17:29N 44°25' E 008°55'0 0.0
2015-Jun-22 16:32N 44°25' E 008°55'0 0.0
2015-Jun-22 15:31N 44°25' E 008°55'0 0.0
2015-Jun-22 14:34N 44°25' E 008°55'1110.5
2015-Jun-22 13:34N 44°15' E 009°02'2322.9
2015-Jun-22 12:34N 43°53' E 009°11'2322.9
2015-Jun-22 11:34N 43°32' E 009°24'2323.0
2015-Jun-22 10:33N 43°10' E 009°33'  

Dump ship's entire track history